sensor_id;sensor_type;location;lat;lon;timestamp;temperature;humidity
55064;DHT22;40963;52.168;21.296;2023-12-29T00:01:50;3.50;99.90
55064;DHT22;40963;52.168;21.296;2023-12-29T00:04:16;3.40;99.90
55064;DHT22;40963;52.168;21.296;2023-12-29T00:06:41;3.30;99.90
55064;DHT22;40963;52.168;21.296;2023-12-29T00:09:09;3.30;99.90
55064;DHT22;40963;52.168;21.296;2023-12-29T00:11:38;3.20;99.90
55064;DHT22;40963;52.168;21.296;2023-12-29T00:14:04;3.20;99.90
55064;DHT22;40963;52.168;21.296;2023-12-29T00:16:30;3.20;99.90
55064;DHT22;40963;52.168;21.296;2023-12-29T00:18:56;3.20;99.90
55064;DHT22;40963;52.168;21.296;2023-12-29T00:21:22;3.20;99.90
55064;DHT22;40963;52.168;21.296;2023-12-29T00:23:47;3.10;99.90
55064;DHT22;40963;52.168;21.296;2023-12-29T00:26:16;3.10;99.90
55064;DHT22;40963;52.168;21.296;2023-12-29T00:28:43;3.10;99.90
55064;DHT22;40963;52.168;21.296;2023-12-29T00:31:13;3.10;99.90
55064;DHT22;40963;52.168;21.296;2023-12-29T00:33:40;3.00;99.90
55064;DHT22;40963;52.168;21.296;2023-12-29T00:36:06;3.00;99.90
55064;DHT22;40963;52.168;21.296;2023-12-29T00:38:32;3.00;99.90
55064;DHT22;40963;52.168;21.296;2023-12-29T00:40:57;3.00;99.90
55064;DHT22;40963;52.168;21.296;2023-12-29T00:43:23;3.00;99.90
55064;DHT22;40963;52.168;21.296;2023-12-29T00:45:49;3.00;99.90
55064;DHT22;40963;52.168;21.296;2023-12-29T00:48:15;3.00;99.90
55064;DHT22;40963;52.168;21.296;2023-12-29T00:50:40;3.00;99.90
55064;DHT22;40963;52.168;21.296;2023-12-29T00:53:06;3.10;99.90
55064;DHT22;40963;52.168;21.296;2023-12-29T00:55:31;3.10;99.90
55064;DHT22;40963;52.168;21.296;2023-12-29T00:57:57;3.10;99.90
55064;DHT22;40963;52.168;21.296;2023-12-29T01:00:23;3.10;99.90
55064;DHT22;40963;52.168;21.296;2023-12-29T01:02:48;3.10;99.90
55064;DHT22;40963;52.168;21.296;2023-12-29T01:05:17;3.20;99.90
55064;DHT22;40963;52.168;21.296;2023-12-29T01:07:43;3.20;99.90
55064;DHT22;40963;52.168;21.296;2023-12-29T01:10:09;3.20;99.90
55064;DHT22;40963;52.168;21.296;2023-12-29T01:12:35;3.20;99.90
55064;DHT22;40963;52.168;21.296;2023-12-29T01:15:00;3.20;99.90
55064;DHT22;40963;52.168;21.296;2023-12-29T01:17:26;3.20;99.90
55064;DHT22;40963;52.168;21.296;2023-12-29T01:19:54;3.20;99.90
55064;DHT22;40963;52.168;21.296;2023-12-29T01:22:19;3.20;99.90
55064;DHT22;40963;52.168;21.296;2023-12-29T01:24:45;3.20;99.90
55064;DHT22;40963;52.168;21.296;2023-12-29T01:27:11;3.30;99.90
55064;DHT22;40963;52.168;21.296;2023-12-29T01:29:36;3.30;99.90
55064;DHT22;40963;52.168;21.296;2023-12-29T01:32:02;3.20;99.90
55064;DHT22;40963;52.168;21.296;2023-12-29T01:34:29;3.30;99.90
55064;DHT22;40963;52.168;21.296;2023-12-29T01:36:58;3.30;99.90
55064;DHT22;40963;52.168;21.296;2023-12-29T01:39:24;3.30;99.90
55064;DHT22;40963;52.168;21.296;2023-12-29T01:41:50;3.30;99.90
55064;DHT22;40963;52.168;21.296;2023-12-29T01:44:19;3.30;99.90
55064;DHT22;40963;52.168;21.296;2023-12-29T01:46:49;3.20;99.90
55064;DHT22;40963;52.168;21.296;2023-12-29T01:49:16;3.20;99.90
55064;DHT22;40963;52.168;21.296;2023-12-29T01:51:51;3.10;99.90
55064;DHT22;40963;52.168;21.296;2023-12-29T01:54:19;3.00;99.90
55064;DHT22;40963;52.168;21.296;2023-12-29T01:56:46;2.90;99.90
55064;DHT22;40963;52.168;21.296;2023-12-29T01:59:12;2.90;99.90
55064;DHT22;40963;52.168;21.296;2023-12-29T02:01:38;2.80;99.90
55064;DHT22;40963;52.168;21.296;2023-12-29T02:04:07;2.80;99.90
55064;DHT22;40963;52.168;21.296;2023-12-29T02:06:34;2.80;99.90
55064;DHT22;40963;52.168;21.296;2023-12-29T02:09:01;2.70;99.90
55064;DHT22;40963;52.168;21.296;2023-12-29T02:11:27;2.70;99.90
55064;DHT22;40963;52.168;21.296;2023-12-29T02:13:53;2.60;99.90
55064;DHT22;40963;52.168;21.296;2023-12-29T02:16:46;2.60;99.90
55064;DHT22;40963;52.168;21.296;2023-12-29T02:22:04;2.60;99.90
55064;DHT22;40963;52.168;21.296;2023-12-29T02:24:30;2.60;99.90
55064;DHT22;40963;52.168;21.296;2023-12-29T02:29:53;2.60;99.90
55064;DHT22;40963;52.168;21.296;2023-12-29T02:32:23;2.60;99.90
55064;DHT22;40963;52.168;21.296;2023-12-29T02:34:50;2.60;99.90
55064;DHT22;40963;52.168;21.296;2023-12-29T02:37:18;2.60;99.90
55064;DHT22;40963;52.168;21.296;2023-12-29T02:39:44;2.60;99.90
55064;DHT22;40963;52.168;21.296;2023-12-29T02:42:10;2.50;99.90
55064;DHT22;40963;52.168;21.296;2023-12-29T02:44:35;2.50;99.90
55064;DHT22;40963;52.168;21.296;2023-12-29T02:47:02;2.40;99.90
55064;DHT22;40963;52.168;21.296;2023-12-29T02:49:29;2.50;99.90
55064;DHT22;40963;52.168;21.296;2023-12-29T02:51:54;2.50;99.90
55064;DHT22;40963;52.168;21.296;2023-12-29T02:54:20;2.50;99.90
55064;DHT22;40963;52.168;21.296;2023-12-29T02:56:46;2.60;99.90
55064;DHT22;40963;52.168;21.296;2023-12-29T02:59:11;2.60;99.90
55064;DHT22;40963;52.168;21.296;2023-12-29T03:01:38;2.60;99.90
55064;DHT22;40963;52.168;21.296;2023-12-29T03:04:03;2.70;99.90
55064;DHT22;40963;52.168;21.296;2023-12-29T03:06:29;2.70;99.90
55064;DHT22;40963;52.168;21.296;2023-12-29T03:08:55;2.70;99.90
55064;DHT22;40963;52.168;21.296;2023-12-29T03:11:20;2.70;99.90
55064;DHT22;40963;52.168;21.296;2023-12-29T03:13:46;2.80;99.90
55064;DHT22;40963;52.168;21.296;2023-12-29T03:16:13;2.80;99.90
55064;DHT22;40963;52.168;21.296;2023-12-29T03:18:38;2.80;99.90
55064;DHT22;40963;52.168;21.296;2023-12-29T03:21:05;2.80;99.90
55064;DHT22;40963;52.168;21.296;2023-12-29T03:23:32;2.80;99.90
55064;DHT22;40963;52.168;21.296;2023-12-29T03:25:58;2.80;99.90
55064;DHT22;40963;52.168;21.296;2023-12-29T03:28:24;2.90;99.90
55064;DHT22;40963;52.168;21.296;2023-12-29T03:30:49;2.90;99.90
55064;DHT22;40963;52.168;21.296;2023-12-29T03:33:15;2.90;99.90
55064;DHT22;40963;52.168;21.296;2023-12-29T03:35:42;2.90;99.90
55064;DHT22;40963;52.168;21.296;2023-12-29T03:38:10;2.90;99.90
55064;DHT22;40963;52.168;21.296;2023-12-29T03:40:36;2.90;99.90
55064;DHT22;40963;52.168;21.296;2023-12-29T03:43:01;2.90;99.90
55064;DHT22;40963;52.168;21.296;2023-12-29T03:45:28;2.90;99.90
55064;DHT22;40963;52.168;21.296;2023-12-29T03:47:53;2.90;99.90
55064;DHT22;40963;52.168;21.296;2023-12-29T03:50:19;2.90;99.90
55064;DHT22;40963;52.168;21.296;2023-12-29T03:52:45;3.00;99.90
55064;DHT22;40963;52.168;21.296;2023-12-29T03:55:10;3.00;99.90
55064;DHT22;40963;52.168;21.296;2023-12-29T03:57:36;3.00;99.90
55064;DHT22;40963;52.168;21.296;2023-12-29T04:00:03;3.00;99.90
55064;DHT22;40963;52.168;21.296;2023-12-29T04:02:29;3.00;99.90
55064;DHT22;40963;52.168;21.296;2023-12-29T04:04:54;3.00;99.90
55064;DHT22;40963;52.168;21.296;2023-12-29T04:07:21;2.90;99.90
55064;DHT22;40963;52.168;21.296;2023-12-29T04:09:46;3.00;99.90
55064;DHT22;40963;52.168;21.296;2023-12-29T04:12:12;3.00;99.90
55064;DHT22;40963;52.168;21.296;2023-12-29T04:14:37;3.00;99.90
55064;DHT22;40963;52.168;21.296;2023-12-29T04:17:03;3.00;99.90
55064;DHT22;40963;52.168;21.296;2023-12-29T04:19:30;3.00;99.90
55064;DHT22;40963;52.168;21.296;2023-12-29T04:21:56;3.00;99.90
55064;DHT22;40963;52.168;21.296;2023-12-29T04:24:22;3.00;99.90
55064;DHT22;40963;52.168;21.296;2023-12-29T04:26:47;3.00;99.90
55064;DHT22;40963;52.168;21.296;2023-12-29T04:29:13;3.00;99.90
55064;DHT22;40963;52.168;21.296;2023-12-29T04:31:39;3.00;99.90
55064;DHT22;40963;52.168;21.296;2023-12-29T04:34:04;3.00;99.90
55064;DHT22;40963;52.168;21.296;2023-12-29T04:36:30;2.90;99.90
55064;DHT22;40963;52.168;21.296;2023-12-29T04:38:55;3.00;99.90
55064;DHT22;40963;52.168;21.296;2023-12-29T04:41:21;2.90;99.90
55064;DHT22;40963;52.168;21.296;2023-12-29T04:43:47;2.90;99.90
55064;DHT22;40963;52.168;21.296;2023-12-29T04:46:12;2.90;99.90
55064;DHT22;40963;52.168;21.296;2023-12-29T04:48:38;2.90;99.90
55064;DHT22;40963;52.168;21.296;2023-12-29T04:51:04;2.80;99.90
55064;DHT22;40963;52.168;21.296;2023-12-29T04:53:29;2.80;99.90
55064;DHT22;40963;52.168;21.296;2023-12-29T04:55:55;2.80;99.90
55064;DHT22;40963;52.168;21.296;2023-12-29T04:58:20;2.80;99.90
55064;DHT22;40963;52.168;21.296;2023-12-29T05:00:46;2.80;99.90
55064;DHT22;40963;52.168;21.296;2023-12-29T05:03:12;2.80;99.90
55064;DHT22;40963;52.168;21.296;2023-12-29T05:05:37;2.80;99.90
55064;DHT22;40963;52.168;21.296;2023-12-29T05:08:03;2.80;99.90
55064;DHT22;40963;52.168;21.296;2023-12-29T05:10:29;2.80;99.90
55064;DHT22;40963;52.168;21.296;2023-12-29T05:12:55;2.80;99.90
55064;DHT22;40963;52.168;21.296;2023-12-29T05:15:21;2.80;99.90
55064;DHT22;40963;52.168;21.296;2023-12-29T05:17:46;2.80;99.90
55064;DHT22;40963;52.168;21.296;2023-12-29T05:20:12;2.80;99.90
55064;DHT22;40963;52.168;21.296;2023-12-29T05:22:38;2.90;99.90
55064;DHT22;40963;52.168;21.296;2023-12-29T05:25:04;2.90;99.90
55064;DHT22;40963;52.168;21.296;2023-12-29T05:27:30;3.00;99.90
55064;DHT22;40963;52.168;21.296;2023-12-29T05:29:57;3.00;99.90
55064;DHT22;40963;52.168;21.296;2023-12-29T05:32:22;3.10;99.90
55064;DHT22;40963;52.168;21.296;2023-12-29T05:34:48;3.10;99.90
55064;DHT22;40963;52.168;21.296;2023-12-29T05:37:13;3.20;99.90
55064;DHT22;40963;52.168;21.296;2023-12-29T05:39:42;3.20;99.90
55064;DHT22;40963;52.168;21.296;2023-12-29T05:42:08;3.20;99.90
55064;DHT22;40963;52.168;21.296;2023-12-29T05:44:36;3.30;99.90
55064;DHT22;40963;52.168;21.296;2023-12-29T05:47:03;3.30;99.90
55064;DHT22;40963;52.168;21.296;2023-12-29T05:49:29;3.30;99.90
55064;DHT22;40963;52.168;21.296;2023-12-29T05:51:55;3.40;99.90
55064;DHT22;40963;52.168;21.296;2023-12-29T05:54:20;3.50;99.90
55064;DHT22;40963;52.168;21.296;2023-12-29T05:56:46;3.50;99.90
55064;DHT22;40963;52.168;21.296;2023-12-29T05:59:12;3.50;99.90
55064;DHT22;40963;52.168;21.296;2023-12-29T06:01:37;3.50;99.90
55064;DHT22;40963;52.168;21.296;2023-12-29T06:04:03;3.50;99.90
55064;DHT22;40963;52.168;21.296;2023-12-29T06:06:29;3.60;99.90
55064;DHT22;40963;52.168;21.296;2023-12-29T06:08:54;3.60;99.90
55064;DHT22;40963;52.168;21.296;2023-12-29T06:11:20;3.70;99.90
55064;DHT22;40963;52.168;21.296;2023-12-29T06:13:46;3.70;99.90
55064;DHT22;40963;52.168;21.296;2023-12-29T06:16:21;3.70;99.90
55064;DHT22;40963;52.168;21.296;2023-12-29T06:18:47;3.80;99.90
55064;DHT22;40963;52.168;21.296;2023-12-29T06:21:13;3.80;99.90
55064;DHT22;40963;52.168;21.296;2023-12-29T06:23:38;3.80;99.90
55064;DHT22;40963;52.168;21.296;2023-12-29T06:26:04;3.90;99.90
55064;DHT22;40963;52.168;21.296;2023-12-29T06:28:30;3.90;99.90
55064;DHT22;40963;52.168;21.296;2023-12-29T06:30:56;3.90;99.90
55064;DHT22;40963;52.168;21.296;2023-12-29T06:33:22;4.00;99.90
55064;DHT22;40963;52.168;21.296;2023-12-29T06:35:48;3.90;99.90
55064;DHT22;40963;52.168;21.296;2023-12-29T06:38:13;4.00;99.90
55064;DHT22;40963;52.168;21.296;2023-12-29T06:40:39;4.00;99.90
55064;DHT22;40963;52.168;21.296;2023-12-29T06:43:05;4.00;99.90
55064;DHT22;40963;52.168;21.296;2023-12-29T06:45:31;4.00;99.90
55064;DHT22;40963;52.168;21.296;2023-12-29T06:47:56;4.00;99.90
55064;DHT22;40963;52.168;21.296;2023-12-29T06:50:22;4.00;99.90
55064;DHT22;40963;52.168;21.296;2023-12-29T06:52:48;4.00;99.90
55064;DHT22;40963;52.168;21.296;2023-12-29T06:55:13;4.00;99.90
55064;DHT22;40963;52.168;21.296;2023-12-29T06:57:39;4.00;99.90
55064;DHT22;40963;52.168;21.296;2023-12-29T07:00:05;4.00;99.90
55064;DHT22;40963;52.168;21.296;2023-12-29T07:02:32;4.00;99.90
55064;DHT22;40963;52.168;21.296;2023-12-29T07:04:57;4.00;99.90
55064;DHT22;40963;52.168;21.296;2023-12-29T07:07:24;4.00;99.90
55064;DHT22;40963;52.168;21.296;2023-12-29T07:09:50;4.00;99.90
55064;DHT22;40963;52.168;21.296;2023-12-29T07:12:16;4.00;99.90
55064;DHT22;40963;52.168;21.296;2023-12-29T07:14:41;4.00;99.90
55064;DHT22;40963;52.168;21.296;2023-12-29T07:17:07;4.10;99.90
55064;DHT22;40963;52.168;21.296;2023-12-29T07:19:32;4.00;99.90
55064;DHT22;40963;52.168;21.296;2023-12-29T07:22:04;4.10;99.90
55064;DHT22;40963;52.168;21.296;2023-12-29T07:24:32;4.10;99.90
55064;DHT22;40963;52.168;21.296;2023-12-29T07:26:58;4.10;99.90
55064;DHT22;40963;52.168;21.296;2023-12-29T07:29:24;4.10;99.90
55064;DHT22;40963;52.168;21.296;2023-12-29T07:31:49;4.20;99.90
55064;DHT22;40963;52.168;21.296;2023-12-29T07:34:15;4.20;99.90
55064;DHT22;40963;52.168;21.296;2023-12-29T07:36:40;4.20;99.90
55064;DHT22;40963;52.168;21.296;2023-12-29T07:39:07;4.20;99.90
55064;DHT22;40963;52.168;21.296;2023-12-29T07:41:32;4.30;99.90
55064;DHT22;40963;52.168;21.296;2023-12-29T07:43:58;4.30;99.90
55064;DHT22;40963;52.168;21.296;2023-12-29T07:46:27;4.40;99.90
55064;DHT22;40963;52.168;21.296;2023-12-29T07:48:52;4.40;99.90
55064;DHT22;40963;52.168;21.296;2023-12-29T07:51:18;4.40;99.90
55064;DHT22;40963;52.168;21.296;2023-12-29T07:53:44;4.50;99.90
55064;DHT22;40963;52.168;21.296;2023-12-29T07:56:10;4.60;99.90
55064;DHT22;40963;52.168;21.296;2023-12-29T07:58:36;4.60;99.90
55064;DHT22;40963;52.168;21.296;2023-12-29T08:01:02;4.70;99.90
55064;DHT22;40963;52.168;21.296;2023-12-29T08:03:27;4.80;99.90
55064;DHT22;40963;52.168;21.296;2023-12-29T08:05:53;4.80;99.90
55064;DHT22;40963;52.168;21.296;2023-12-29T08:08:18;4.90;99.90
55064;DHT22;40963;52.168;21.296;2023-12-29T08:10:44;4.90;99.90
55064;DHT22;40963;52.168;21.296;2023-12-29T08:13:10;5.00;99.90
55064;DHT22;40963;52.168;21.296;2023-12-29T08:15:35;5.10;99.90
55064;DHT22;40963;52.168;21.296;2023-12-29T08:18:03;5.10;99.90
55064;DHT22;40963;52.168;21.296;2023-12-29T08:20:29;5.10;99.90
55064;DHT22;40963;52.168;21.296;2023-12-29T08:22:55;5.20;99.90
55064;DHT22;40963;52.168;21.296;2023-12-29T08:25:20;5.20;99.90
55064;DHT22;40963;52.168;21.296;2023-12-29T08:27:46;5.20;99.90
55064;DHT22;40963;52.168;21.296;2023-12-29T08:30:12;5.30;99.90
55064;DHT22;40963;52.168;21.296;2023-12-29T08:32:37;5.30;99.90
55064;DHT22;40963;52.168;21.296;2023-12-29T08:35:03;5.40;99.90
55064;DHT22;40963;52.168;21.296;2023-12-29T08:37:29;5.40;99.90
55064;DHT22;40963;52.168;21.296;2023-12-29T08:39:54;5.40;99.90
55064;DHT22;40963;52.168;21.296;2023-12-29T08:42:21;5.50;99.90
55064;DHT22;40963;52.168;21.296;2023-12-29T08:44:47;5.50;99.90
55064;DHT22;40963;52.168;21.296;2023-12-29T08:47:12;5.50;99.90
55064;DHT22;40963;52.168;21.296;2023-12-29T08:49:39;5.50;99.90
55064;DHT22;40963;52.168;21.296;2023-12-29T08:52:06;5.60;99.90
55064;DHT22;40963;52.168;21.296;2023-12-29T08:54:32;5.60;99.90
55064;DHT22;40963;52.168;21.296;2023-12-29T08:56:58;5.60;99.90
55064;DHT22;40963;52.168;21.296;2023-12-29T08:59:24;5.70;99.90
55064;DHT22;40963;52.168;21.296;2023-12-29T09:01:49;5.80;99.90
55064;DHT22;40963;52.168;21.296;2023-12-29T09:04:15;5.90;99.90
55064;DHT22;40963;52.168;21.296;2023-12-29T09:06:40;5.90;99.90
55064;DHT22;40963;52.168;21.296;2023-12-29T09:09:06;6.00;99.90
55064;DHT22;40963;52.168;21.296;2023-12-29T09:11:32;6.00;99.90
55064;DHT22;40963;52.168;21.296;2023-12-29T09:13:57;6.10;99.90
55064;DHT22;40963;52.168;21.296;2023-12-29T09:16:23;6.20;99.90
55064;DHT22;40963;52.168;21.296;2023-12-29T09:18:48;6.30;99.90
55064;DHT22;40963;52.168;21.296;2023-12-29T09:21:14;6.30;99.90
55064;DHT22;40963;52.168;21.296;2023-12-29T09:23:39;6.40;99.90
55064;DHT22;40963;52.168;21.296;2023-12-29T09:26:06;6.40;99.90
55064;DHT22;40963;52.168;21.296;2023-12-29T09:28:32;6.40;99.90
55064;DHT22;40963;52.168;21.296;2023-12-29T09:30:58;6.50;99.90
55064;DHT22;40963;52.168;21.296;2023-12-29T09:33:23;6.50;99.90
55064;DHT22;40963;52.168;21.296;2023-12-29T09:35:50;6.50;99.90
55064;DHT22;40963;52.168;21.296;2023-12-29T09:38:16;6.60;99.90
55064;DHT22;40963;52.168;21.296;2023-12-29T09:40:42;6.60;99.90
55064;DHT22;40963;52.168;21.296;2023-12-29T09:43:08;6.60;99.90
55064;DHT22;40963;52.168;21.296;2023-12-29T09:45:37;6.60;99.90
55064;DHT22;40963;52.168;21.296;2023-12-29T09:48:08;6.70;99.90
55064;DHT22;40963;52.168;21.296;2023-12-29T09:50:39;6.70;99.90
55064;DHT22;40963;52.168;21.296;2023-12-29T09:53:06;6.70;99.90
55064;DHT22;40963;52.168;21.296;2023-12-29T09:55:32;6.80;99.90
55064;DHT22;40963;52.168;21.296;2023-12-29T09:57:59;6.90;99.90
55064;DHT22;40963;52.168;21.296;2023-12-29T10:00:26;7.00;99.90
55064;DHT22;40963;52.168;21.296;2023-12-29T10:02:52;7.00;99.90
55064;DHT22;40963;52.168;21.296;2023-12-29T10:05:19;7.10;99.90
55064;DHT22;40963;52.168;21.296;2023-12-29T10:07:46;7.20;99.90
55064;DHT22;40963;52.168;21.296;2023-12-29T10:10:15;7.30;99.90
55064;DHT22;40963;52.168;21.296;2023-12-29T10:12:42;7.30;99.90
55064;DHT22;40963;52.168;21.296;2023-12-29T10:26:00;7.60;99.90
55064;DHT22;40963;52.168;21.296;2023-12-29T10:28:25;7.70;99.90
55064;DHT22;40963;52.168;21.296;2023-12-29T10:30:51;7.80;99.90
55064;DHT22;40963;52.168;21.296;2023-12-29T10:33:20;7.90;99.90
55064;DHT22;40963;52.168;21.296;2023-12-29T10:35:58;7.90;99.90
55064;DHT22;40963;52.168;21.296;2023-12-29T10:38:32;8.00;99.90
55064;DHT22;40963;52.168;21.296;2023-12-29T10:41:18;8.10;99.90
55064;DHT22;40963;52.168;21.296;2023-12-29T10:43:46;8.20;99.90
55064;DHT22;40963;52.168;21.296;2023-12-29T10:46:18;8.30;99.90
55064;DHT22;40963;52.168;21.296;2023-12-29T10:48:43;8.40;99.90
55064;DHT22;40963;52.168;21.296;2023-12-29T10:51:10;8.50;99.90
55064;DHT22;40963;52.168;21.296;2023-12-29T10:53:36;8.50;99.90
55064;DHT22;40963;52.168;21.296;2023-12-29T10:56:02;8.60;99.90
55064;DHT22;40963;52.168;21.296;2023-12-29T10:58:28;8.60;99.90
55064;DHT22;40963;52.168;21.296;2023-12-29T11:00:55;8.70;99.90
55064;DHT22;40963;52.168;21.296;2023-12-29T11:03:21;8.70;99.90
55064;DHT22;40963;52.168;21.296;2023-12-29T11:05:47;8.70;99.90
55064;DHT22;40963;52.168;21.296;2023-12-29T11:08:20;8.80;99.90
55064;DHT22;40963;52.168;21.296;2023-12-29T11:10:50;8.80;99.90
55064;DHT22;40963;52.168;21.296;2023-12-29T11:13:16;8.80;99.90
55064;DHT22;40963;52.168;21.296;2023-12-29T11:15:44;8.90;99.90
55064;DHT22;40963;52.168;21.296;2023-12-29T11:18:16;8.90;99.90
55064;DHT22;40963;52.168;21.296;2023-12-29T11:20:43;8.90;99.90
55064;DHT22;40963;52.168;21.296;2023-12-29T11:23:10;9.00;99.90
55064;DHT22;40963;52.168;21.296;2023-12-29T11:25:38;9.00;99.90
55064;DHT22;40963;52.168;21.296;2023-12-29T11:28:09;9.00;99.90
55064;DHT22;40963;52.168;21.296;2023-12-29T11:30:36;9.10;99.90
55064;DHT22;40963;52.168;21.296;2023-12-29T11:33:07;9.00;99.90
55064;DHT22;40963;52.168;21.296;2023-12-29T11:35:46;9.10;99.90
55064;DHT22;40963;52.168;21.296;2023-12-29T11:41:26;9.10;99.90
55064;DHT22;40963;52.168;21.296;2023-12-29T11:43:58;9.10;99.90
55064;DHT22;40963;52.168;21.296;2023-12-29T11:46:37;9.10;99.90
55064;DHT22;40963;52.168;21.296;2023-12-29T11:49:04;9.20;99.90
55064;DHT22;40963;52.168;21.296;2023-12-29T11:51:44;9.20;99.90
55064;DHT22;40963;52.168;21.296;2023-12-29T11:54:10;9.20;99.90
55064;DHT22;40963;52.168;21.296;2023-12-29T11:56:46;9.20;99.90
55064;DHT22;40963;52.168;21.296;2023-12-29T11:59:19;9.20;99.90
55064;DHT22;40963;52.168;21.296;2023-12-29T12:01:56;9.30;99.90
55064;DHT22;40963;52.168;21.296;2023-12-29T12:07:17;9.40;99.90
55064;DHT22;40963;52.168;21.296;2023-12-29T12:10:37;9.40;99.90
55064;DHT22;40963;52.168;21.296;2023-12-29T12:13:05;9.40;99.90
55064;DHT22;40963;52.168;21.296;2023-12-29T12:15:32;9.50;99.90
55064;DHT22;40963;52.168;21.296;2023-12-29T12:17:59;9.50;99.90
55064;DHT22;40963;52.168;21.296;2023-12-29T12:20:25;9.60;99.90
55064;DHT22;40963;52.168;21.296;2023-12-29T12:23:02;9.60;99.90
55064;DHT22;40963;52.168;21.296;2023-12-29T12:25:30;9.60;99.90
55064;DHT22;40963;52.168;21.296;2023-12-29T12:27:57;9.70;99.90
55064;DHT22;40963;52.168;21.296;2023-12-29T12:30:23;9.70;99.90
55064;DHT22;40963;52.168;21.296;2023-12-29T12:32:58;9.70;99.90
55064;DHT22;40963;52.168;21.296;2023-12-29T12:35:24;9.80;99.90
55064;DHT22;40963;52.168;21.296;2023-12-29T12:38:15;9.80;99.90
55064;DHT22;40963;52.168;21.296;2023-12-29T12:40:49;9.80;99.90
55064;DHT22;40963;52.168;21.296;2023-12-29T12:43:15;9.80;99.90
55064;DHT22;40963;52.168;21.296;2023-12-29T12:46:01;9.80;99.90
55064;DHT22;40963;52.168;21.296;2023-12-29T12:48:43;9.90;99.90
55064;DHT22;40963;52.168;21.296;2023-12-29T12:51:10;9.90;99.30
55064;DHT22;40963;52.168;21.296;2023-12-29T12:53:42;9.80;98.80
55064;DHT22;40963;52.168;21.296;2023-12-29T12:56:13;9.80;98.30
55064;DHT22;40963;52.168;21.296;2023-12-29T12:58:39;9.90;97.80
55064;DHT22;40963;52.168;21.296;2023-12-29T13:01:06;9.80;97.40
55064;DHT22;40963;52.168;21.296;2023-12-29T13:03:32;9.90;96.80
55064;DHT22;40963;52.168;21.296;2023-12-29T13:05:58;9.90;96.60
55064;DHT22;40963;52.168;21.296;2023-12-29T13:08:25;9.90;96.30
55064;DHT22;40963;52.168;21.296;2023-12-29T13:10:51;9.90;95.70
55064;DHT22;40963;52.168;21.296;2023-12-29T13:13:17;9.90;95.50
55064;DHT22;40963;52.168;21.296;2023-12-29T13:15:51;9.90;95.10
55064;DHT22;40963;52.168;21.296;2023-12-29T13:18:28;9.90;94.70
55064;DHT22;40963;52.168;21.296;2023-12-29T13:20:54;9.80;94.40
55064;DHT22;40963;52.168;21.296;2023-12-29T13:23:25;9.80;94.10
55064;DHT22;40963;52.168;21.296;2023-12-29T13:25:54;9.80;93.80
55064;DHT22;40963;52.168;21.296;2023-12-29T13:28:33;9.80;93.60
55064;DHT22;40963;52.168;21.296;2023-12-29T13:31:00;9.90;93.50
55064;DHT22;40963;52.168;21.296;2023-12-29T13:33:37;9.80;93.30
55064;DHT22;40963;52.168;21.296;2023-12-29T13:36:17;9.80;93.20
55064;DHT22;40963;52.168;21.296;2023-12-29T13:38:55;9.80;93.10
55064;DHT22;40963;52.168;21.296;2023-12-29T13:41:22;9.80;93.10
55064;DHT22;40963;52.168;21.296;2023-12-29T13:43:49;9.80;93.00
55064;DHT22;40963;52.168;21.296;2023-12-29T13:46:16;9.80;93.00
55064;DHT22;40963;52.168;21.296;2023-12-29T13:48:43;9.80;93.00
55064;DHT22;40963;52.168;21.296;2023-12-29T13:51:09;9.80;93.00
55064;DHT22;40963;52.168;21.296;2023-12-29T13:53:35;9.80;93.00
55064;DHT22;40963;52.168;21.296;2023-12-29T13:56:10;9.80;93.20
55064;DHT22;40963;52.168;21.296;2023-12-29T13:58:37;9.80;93.30
55064;DHT22;40963;52.168;21.296;2023-12-29T14:01:06;9.70;93.30
55064;DHT22;40963;52.168;21.296;2023-12-29T14:03:59;9.70;93.40
55064;DHT22;40963;52.168;21.296;2023-12-29T14:06:42;9.70;93.40
55064;DHT22;40963;52.168;21.296;2023-12-29T14:09:15;9.70;93.50
55064;DHT22;40963;52.168;21.296;2023-12-29T14:11:48;9.70;93.60
55064;DHT22;40963;52.168;21.296;2023-12-29T14:14:14;9.70;93.70
55064;DHT22;40963;52.168;21.296;2023-12-29T14:16:40;9.70;93.80
55064;DHT22;40963;52.168;21.296;2023-12-29T14:19:06;9.70;94.00
55064;DHT22;40963;52.168;21.296;2023-12-29T14:21:33;9.60;94.10
55064;DHT22;40963;52.168;21.296;2023-12-29T14:24:00;9.60;94.10
55064;DHT22;40963;52.168;21.296;2023-12-29T14:26:26;9.60;94.20
55064;DHT22;40963;52.168;21.296;2023-12-29T14:29:09;9.60;94.40
55064;DHT22;40963;52.168;21.296;2023-12-29T14:31:36;9.50;94.50
55064;DHT22;40963;52.168;21.296;2023-12-29T14:34:06;9.50;94.60
55064;DHT22;40963;52.168;21.296;2023-12-29T14:36:33;9.50;94.70
55064;DHT22;40963;52.168;21.296;2023-12-29T14:38:59;9.50;95.00
55064;DHT22;40963;52.168;21.296;2023-12-29T14:41:25;9.40;95.10
55064;DHT22;40963;52.168;21.296;2023-12-29T14:43:53;9.40;95.30
55064;DHT22;40963;52.168;21.296;2023-12-29T14:46:19;9.40;95.40
55064;DHT22;40963;52.168;21.296;2023-12-29T14:48:45;9.40;95.60
55064;DHT22;40963;52.168;21.296;2023-12-29T14:51:11;9.40;95.80
55064;DHT22;40963;52.168;21.296;2023-12-29T14:53:37;9.40;96.00
55064;DHT22;40963;52.168;21.296;2023-12-29T14:56:03;9.40;96.10
55064;DHT22;40963;52.168;21.296;2023-12-29T14:58:29;9.40;96.20
55064;DHT22;40963;52.168;21.296;2023-12-29T15:00:58;9.40;96.40
55064;DHT22;40963;52.168;21.296;2023-12-29T15:03:24;9.30;96.60
55064;DHT22;40963;52.168;21.296;2023-12-29T15:05:50;9.30;96.60
55064;DHT22;40963;52.168;21.296;2023-12-29T15:08:16;9.30;96.70
55064;DHT22;40963;52.168;21.296;2023-12-29T15:10:43;9.30;96.60
55064;DHT22;40963;52.168;21.296;2023-12-29T15:13:10;9.30;96.60
55064;DHT22;40963;52.168;21.296;2023-12-29T15:15:36;9.20;96.80
55064;DHT22;40963;52.168;21.296;2023-12-29T15:18:05;9.20;96.90
55064;DHT22;40963;52.168;21.296;2023-12-29T15:20:31;9.10;97.20
55064;DHT22;40963;52.168;21.296;2023-12-29T15:22:57;9.10;97.60
55064;DHT22;40963;52.168;21.296;2023-12-29T15:25:25;9.10;98.00
55064;DHT22;40963;52.168;21.296;2023-12-29T15:27:53;9.10;98.30
55064;DHT22;40963;52.168;21.296;2023-12-29T15:30:19;9.10;98.40
55064;DHT22;40963;52.168;21.296;2023-12-29T15:32:45;9.10;98.70
55064;DHT22;40963;52.168;21.296;2023-12-29T15:35:11;9.10;98.60
55064;DHT22;40963;52.168;21.296;2023-12-29T15:37:37;9.00;98.40
55064;DHT22;40963;52.168;21.296;2023-12-29T15:40:03;9.00;98.40
55064;DHT22;40963;52.168;21.296;2023-12-29T15:42:32;8.90;98.40
55064;DHT22;40963;52.168;21.296;2023-12-29T15:44:58;8.90;98.30
55064;DHT22;40963;52.168;21.296;2023-12-29T15:47:24;8.90;98.50
55064;DHT22;40963;52.168;21.296;2023-12-29T15:49:49;8.80;98.90
55064;DHT22;40963;52.168;21.296;2023-12-29T15:52:15;8.80;99.10
55064;DHT22;40963;52.168;21.296;2023-12-29T15:54:41;8.70;99.40